createdAt,value
2018-04-18T00:02:08.858Z,9.67
2018-04-18T00:04:44.142Z,9.03
2018-04-18T00:07:18.660Z,9.63
2018-04-18T00:09:52.434Z,10.17
2018-04-18T00:12:26.886Z,9.30
2018-04-18T00:15:01.575Z,10.53
2018-04-18T00:17:36.170Z,9.27
2018-04-18T00:20:10.752Z,9.53
2018-04-18T00:22:46.362Z,10.13
2018-04-18T00:25:19.863Z,8.93
2018-04-18T00:27:53.670Z,9.70
2018-04-18T00:30:27.331Z,9.60
2018-04-18T00:33:00.976Z,10.50
2018-04-18T00:35:34.621Z,10.37
2018-04-18T00:38:08.520Z,9.70
2018-04-18T00:40:42.219Z,10.03
2018-04-18T00:43:16.604Z,13.30
2018-04-18T00:45:52.043Z,13.07
2018-04-18T00:48:26.479Z,14.47
2018-04-18T00:51:00.428Z,13.93
2018-04-18T00:53:34.851Z,13.50
2018-04-18T00:56:10.046Z,12.03
2018-04-18T00:58:43.863Z,12.53
2018-04-18T01:01:19.190Z,11.40
2018-04-18T01:03:53.083Z,12.30
2018-04-18T01:06:27.403Z,12.70
2018-04-18T01:09:01.035Z,13.50
2018-04-18T01:11:34.886Z,12.13
2018-04-18T01:14:09.264Z,13.27
2018-04-18T01:16:42.864Z,12.03
2018-04-18T01:19:16.582Z,11.37
2018-04-18T01:21:50.183Z,11.10
2018-04-18T01:24:25.992Z,10.87
2018-04-18T01:26:59.710Z,12.97
2018-04-18T01:29:33.587Z,14.93
2018-04-18T01:32:07.956Z,13.93
2018-04-18T01:34:41.913Z,16.10
2018-04-18T01:37:15.911Z,18.63
2018-04-18T01:39:49.622Z,17.60
2018-04-18T01:42:23.166Z,17.83
2018-04-18T01:44:56.738Z,19.93
2018-04-18T01:47:30.406Z,15.47
2018-04-18T01:50:04.923Z,14.43
2018-04-18T01:52:39.428Z,15.77
2018-04-18T01:55:13.226Z,15.87
2018-04-18T01:57:46.873Z,13.80
2018-04-18T02:00:21.765Z,15.83
2018-04-18T02:02:56.280Z,15.77
2018-04-18T02:05:30.848Z,14.33
2018-04-18T02:08:04.635Z,14.70
2018-04-18T02:10:38.130Z,15.93
2018-04-18T02:13:12.483Z,14.73
2018-04-18T02:15:46.208Z,14.50
2018-04-18T02:18:19.884Z,13.27
2018-04-18T02:20:53.919Z,11.60
2018-04-18T02:23:28.056Z,13.97
2018-04-18T02:26:02.579Z,16.03
2018-04-18T02:28:36.040Z,15.60
2018-04-18T02:31:10.563Z,14.03
2018-04-18T02:33:45.039Z,14.23
2018-04-18T02:36:19.390Z,16.80
2018-04-18T02:38:53.468Z,16.97
2018-04-18T02:41:27.112Z,17.73
2018-04-18T02:44:00.851Z,17.83
2018-04-18T02:46:34.624Z,14.67
2018-04-18T02:49:08.431Z,12.70
2018-04-18T02:51:43.750Z,15.73
2018-04-18T02:54:18.378Z,16.30
2018-04-18T02:56:52.126Z,13.83
2018-04-18T02:59:26.278Z,14.13
2018-04-18T03:02:00.734Z,12.70
2018-04-18T03:04:34.626Z,13.23
2018-04-18T03:07:08.467Z,13.20
2018-04-18T03:09:42.327Z,14.07
2018-04-18T03:12:15.895Z,14.33
2018-04-18T03:14:50.410Z,14.13
2018-04-18T03:17:24.304Z,15.77
2018-04-18T03:19:58.080Z,18.83
2018-04-18T03:22:32.579Z,19.27
2018-04-18T03:25:06.341Z,18.50
2018-04-18T03:27:40.250Z,16.80
2018-04-18T03:30:14.095Z,19.73
2018-04-18T03:32:48.397Z,16.70
2018-04-18T03:35:22.230Z,16.07
2018-04-18T03:37:57.455Z,17.70
2018-04-18T03:40:31.975Z,16.70
2018-04-18T03:43:05.903Z,18.20
2018-04-18T03:45:39.405Z,27.23
2018-04-18T03:48:14.639Z,19.03
2018-04-18T03:50:49.623Z,18.13
2018-04-18T03:53:23.475Z,21.77
2018-04-18T03:55:58.007Z,19.70
2018-04-18T03:58:32.382Z,22.07
2018-04-18T04:01:06.311Z,20.87
2018-04-18T04:03:39.839Z,22.40
2018-04-18T04:06:13.518Z,23.17
2018-04-18T04:08:48.471Z,22.77
2018-04-18T04:11:23.032Z,23.87
2018-04-18T04:13:56.691Z,19.37
2018-04-18T04:16:42.356Z,17.57
2018-04-18T04:19:28.201Z,19.23
2018-04-18T04:22:14.914Z,21.33
2018-04-18T04:24:49.044Z,25.20
2018-04-18T04:27:22.907Z,25.27
2018-04-18T04:29:58.314Z,22.93
2018-04-18T04:32:31.822Z,21.67
2018-04-18T04:35:05.467Z,19.90
2018-04-18T04:37:40.006Z,21.53
2018-04-18T04:40:14.509Z,19.63
2018-04-18T04:42:48.166Z,17.97
2018-04-18T04:45:21.806Z,21.80
2018-04-18T04:47:56.346Z,19.93
2018-04-18T04:50:30.339Z,18.73
2018-04-18T04:53:04.122Z,19.23
2018-04-18T04:55:38.151Z,20.10
2018-04-18T04:58:11.978Z,20.77
2018-04-18T05:00:45.471Z,19.43
2018-04-18T05:03:19.211Z,20.47
2018-04-18T05:05:54.603Z,23.27
2018-04-18T05:08:29.166Z,24.67
2018-04-18T05:11:02.682Z,20.40
2018-04-18T05:13:36.260Z,20.23
2018-04-18T05:16:10.087Z,19.10
2018-04-18T05:18:43.551Z,17.53
2018-04-18T05:21:17.158Z,20.40
2018-04-18T05:23:51.016Z,17.27
2018-04-18T05:26:24.566Z,18.80
2018-04-18T05:28:58.147Z,14.90
2018-04-18T05:31:32.596Z,14.63
2018-04-18T05:34:06.311Z,16.27
2018-04-18T05:36:40.138Z,16.37
2018-04-18T05:39:13.759Z,15.83
2018-04-18T05:41:48.134Z,15.00
2018-04-18T05:44:21.928Z,16.30
2018-04-18T05:46:56.743Z,16.93
2018-04-18T05:49:30.773Z,18.30
2018-04-18T05:52:04.656Z,15.80
2018-04-18T05:54:38.234Z,15.37
2018-04-18T05:57:13.130Z,15.87
2018-04-18T05:59:46.917Z,21.90
2018-04-18T06:02:20.526Z,16.63
2018-04-18T06:04:54.003Z,33.23
2018-04-18T06:07:27.776Z,34.43
2018-04-18T06:10:02.204Z,30.83
2018-04-18T06:12:36.605Z,37.63
2018-04-18T06:15:10.070Z,37.13
2018-04-18T06:17:43.819Z,22.77
2018-04-18T06:20:18.053Z,21.03
2018-04-18T06:22:52.385Z,23.83
2018-04-18T06:25:26.086Z,19.00
2018-04-18T06:27:59.791Z,19.57
2018-04-18T06:30:33.387Z,20.87
2018-04-18T06:33:07.800Z,16.87
2018-04-18T06:35:42.223Z,16.83
2018-04-18T06:38:16.591Z,15.77
2018-04-18T06:40:51.305Z,15.97
2018-04-18T06:43:25.158Z,16.53
2018-04-18T06:45:58.679Z,20.17
2018-04-18T06:48:32.548Z,19.13
2018-04-18T06:51:07.218Z,18.40
2018-04-18T06:53:40.839Z,19.27
2018-04-18T06:56:15.698Z,19.73
2018-04-18T06:58:50.913Z,21.23
2018-04-18T07:01:25.743Z,21.47
2018-04-18T07:04:00.690Z,19.03
2018-04-18T07:06:35.517Z,19.73
2018-04-18T07:09:10.046Z,21.50
2018-04-18T07:11:44.558Z,18.90
2018-04-18T07:14:18.634Z,18.97
2018-04-18T07:16:53.220Z,22.20
2018-04-18T07:19:28.091Z,20.70
2018-04-18T07:22:02.854Z,20.47
2018-04-18T07:24:37.536Z,22.40
2018-04-18T07:27:12.569Z,19.73
2018-04-18T07:29:47.140Z,22.70
2018-04-18T07:32:20.882Z,21.00
2018-04-18T07:34:56.087Z,22.83
2018-04-18T07:37:29.723Z,22.13
2018-04-18T07:40:04.437Z,21.83
2018-04-18T07:42:39.111Z,21.43
2018-04-18T07:45:13.938Z,21.57
2018-04-18T07:47:49.038Z,20.47
2018-04-18T07:50:22.804Z,20.73
2018-04-18T07:52:57.038Z,24.87
2018-04-18T07:55:32.132Z,21.77
2018-04-18T07:58:06.869Z,23.40
2018-04-18T08:00:40.488Z,20.47
2018-04-18T08:03:14.705Z,19.03
2018-04-18T08:05:48.777Z,18.03
2018-04-18T08:08:22.612Z,19.63
2018-04-18T08:10:57.305Z,17.73
2018-04-18T08:13:31.037Z,18.70
2018-04-18T08:16:05.972Z,18.67
2018-04-18T08:18:41.288Z,17.50
2018-04-18T08:21:15.618Z,21.63
2018-04-18T08:23:49.323Z,18.03
2018-04-18T08:26:23.832Z,20.73
2018-04-18T08:28:58.581Z,18.53
2018-04-18T08:31:33.110Z,18.93
2018-04-18T08:34:08.121Z,20.20
2018-04-18T08:36:42.057Z,16.43
2018-04-18T08:39:16.832Z,18.03
2018-04-18T08:41:50.844Z,17.17
2018-04-18T08:44:25.386Z,18.27
2018-04-18T08:47:00.344Z,19.53
2018-04-18T08:49:34.597Z,18.27
2018-04-18T08:52:09.204Z,15.57
2018-04-18T08:54:43.798Z,18.73
2018-04-18T08:57:18.309Z,17.53
2018-04-18T08:59:52.321Z,14.97
2018-04-18T09:02:26.524Z,16.47
2018-04-18T09:05:00.163Z,14.73
2018-04-18T09:07:34.293Z,13.57
2018-04-18T09:10:08.332Z,13.73
2018-04-18T09:12:43.174Z,13.47
2018-04-18T09:15:17.082Z,17.97
2018-04-18T09:17:50.956Z,10.53
2018-04-18T09:20:24.892Z,9.77
2018-04-18T09:22:59.519Z,9.87
2018-04-18T09:25:33.193Z,10.10
2018-04-18T09:28:06.762Z,10.23
2018-04-18T09:30:40.382Z,12.17
2018-04-18T09:33:14.007Z,11.13
2018-04-18T09:35:47.664Z,10.70
2018-04-18T09:38:22.218Z,11.83
2018-04-18T09:40:55.894Z,10.67
2018-04-18T09:43:30.587Z,10.27
2018-04-18T09:46:04.271Z,9.93
2018-04-18T09:48:38.078Z,8.57
2018-04-18T09:51:11.804Z,11.20
2018-04-18T09:53:46.523Z,8.27
2018-04-18T09:56:21.254Z,10.83
2018-04-18T09:58:55.595Z,8.77
2018-04-18T10:01:35.883Z,9.80
2018-04-18T10:04:09.715Z,9.17
2018-04-18T10:06:43.338Z,8.17
2018-04-18T10:09:18.043Z,8.70
2018-04-18T10:11:52.308Z,9.03
2018-04-18T10:14:25.992Z,9.03
2018-04-18T10:16:59.579Z,7.83
2018-04-18T10:19:33.173Z,7.63
2018-04-18T10:22:07.670Z,7.67
2018-04-18T10:24:41.738Z,9.27
2018-04-18T10:27:15.707Z,7.07
2018-04-18T10:29:49.608Z,5.83
2018-04-18T10:32:24.178Z,6.30
2018-04-18T10:34:58.109Z,8.07
2018-04-18T10:37:32.224Z,9.53
2018-04-18T10:40:05.839Z,7.00
2018-04-18T10:42:40.797Z,6.73
2018-04-18T10:45:15.304Z,6.03
2018-04-18T10:47:49.322Z,7.03
2018-04-18T10:50:24.735Z,6.73
2018-04-18T10:52:59.907Z,5.67
2018-04-18T10:55:33.810Z,6.37
2018-04-18T10:58:08.209Z,8.93
2018-04-18T11:00:43.669Z,8.57
2018-04-18T11:03:17.360Z,5.30
2018-04-18T11:05:52.158Z,7.23
2018-04-18T11:08:25.618Z,5.60
2018-04-18T11:10:59.272Z,5.80
2018-04-18T11:13:33.900Z,6.03
2018-04-18T11:16:08.235Z,6.23
2018-04-18T11:18:43.768Z,4.80
2018-04-18T11:21:18.591Z,6.27
2018-04-18T11:23:53.338Z,4.80
2018-04-18T11:26:26.859Z,5.87
2018-04-18T11:29:00.562Z,5.93
2018-04-18T11:31:34.361Z,9.03
2018-04-18T11:34:08.955Z,7.13
2018-04-18T11:36:43.153Z,5.43
2018-04-18T11:39:17.785Z,7.47
2018-04-18T11:41:52.734Z,5.83
2018-04-18T11:44:26.275Z,4.47
2018-04-18T11:47:00.897Z,5.17
2018-04-18T11:49:35.166Z,7.07
2018-04-18T11:52:10.567Z,4.90
2018-04-18T11:54:45.678Z,4.13
2018-04-18T11:57:19.334Z,4.27
2018-04-18T11:59:53.202Z,5.30
2018-04-18T12:02:27.035Z,5.53
2018-04-18T12:05:01.566Z,6.10
2018-04-18T12:07:36.315Z,4.53
2018-04-18T12:10:10.883Z,4.40
2018-04-18T12:12:44.509Z,4.73
2018-04-18T12:15:18.378Z,5.40
2018-04-18T12:17:52.068Z,4.33
2018-04-18T12:20:25.631Z,6.13
2018-04-18T12:23:01.258Z,4.20
2018-04-18T12:25:34.995Z,10.40
2018-04-18T12:28:08.754Z,5.83
2018-04-18T12:30:43.956Z,4.30
2018-04-18T12:33:17.835Z,5.67
2018-04-18T12:35:51.552Z,4.97
2018-04-18T12:38:25.386Z,4.67
2018-04-18T12:40:59.841Z,7.30
2018-04-18T12:43:34.454Z,4.63
2018-04-18T12:46:09.932Z,5.97
2018-04-18T12:48:44.623Z,5.00
2018-04-18T12:51:18.339Z,5.13
2018-04-18T12:53:52.356Z,4.47
2018-04-18T12:56:27.126Z,4.83
2018-04-18T12:59:01.248Z,8.23
2018-04-18T13:01:34.872Z,4.80
2018-04-18T13:04:09.282Z,4.50
2018-04-18T13:06:44.028Z,4.30
2018-04-18T13:09:18.747Z,5.77
2018-04-18T13:11:52.877Z,5.43
2018-04-18T13:14:26.679Z,4.50
2018-04-18T13:17:01.362Z,4.90
2018-04-18T13:19:35.070Z,5.20
2018-04-18T13:22:09.841Z,4.83
2018-04-18T13:24:44.575Z,6.77
2018-04-18T13:27:18.638Z,5.83
2018-04-18T13:29:53.074Z,5.53
2018-04-18T13:32:28.790Z,4.80
2018-04-18T13:35:03.286Z,4.93
2018-04-18T13:37:36.923Z,7.33
2018-04-18T13:40:12.168Z,5.63
2018-04-18T13:42:45.987Z,6.13
2018-04-18T13:45:20.760Z,5.83
2018-04-18T13:47:55.324Z,5.33
2018-04-18T13:50:29.345Z,5.40
2018-04-18T13:53:03.562Z,9.33
2018-04-18T13:55:37.624Z,8.00
2018-04-18T13:58:12.143Z,5.50
2018-04-18T14:00:46.718Z,5.50
2018-04-18T14:03:21.485Z,5.67
2018-04-18T14:05:56.145Z,6.17
2018-04-18T14:08:30.359Z,5.33
2018-04-18T14:11:04.996Z,7.67
2018-04-18T14:13:38.971Z,5.80
2018-04-18T14:16:12.875Z,6.30
2018-04-18T14:18:47.534Z,6.60
2018-04-18T14:21:22.429Z,7.60
2018-04-18T14:23:56.037Z,5.53
2018-04-18T14:26:30.769Z,7.17
2018-04-18T14:29:05.940Z,6.43
2018-04-18T14:31:39.781Z,8.20
2018-04-18T14:34:14.542Z,5.60
2018-04-18T14:36:48.285Z,6.10
2018-04-18T14:39:22.975Z,4.90
2018-04-18T14:41:57.891Z,4.77
2018-04-18T14:44:32.576Z,6.83
2018-04-18T14:47:06.470Z,4.13
2018-04-18T14:49:41.521Z,4.63
2018-04-18T14:52:16.377Z,4.30
2018-04-18T14:54:50.211Z,4.90
2018-04-18T14:57:24.470Z,5.33
2018-04-18T14:59:58.927Z,4.67
2018-04-18T15:02:33.853Z,5.80
2018-04-18T15:05:08.307Z,9.73
2018-04-18T15:07:43.122Z,5.50
2018-04-18T15:10:16.908Z,5.03
2018-04-18T15:12:51.424Z,6.20
2018-04-18T15:15:26.011Z,9.77
2018-04-18T15:18:00.014Z,5.20
2018-04-18T15:20:34.908Z,5.60
2018-04-18T15:23:08.820Z,5.43
2018-04-18T15:25:42.709Z,6.67
2018-04-18T15:28:16.926Z,6.17
2018-04-18T15:30:51.441Z,6.50
2018-04-18T15:33:26.084Z,7.03
2018-04-18T15:36:00.397Z,6.50
2018-04-18T15:38:35.079Z,6.77
2018-04-18T15:41:09.233Z,5.70
2018-04-18T15:43:43.251Z,6.67
2018-04-18T15:46:17.302Z,6.00
2018-04-18T15:48:52.336Z,6.93
2018-04-18T15:51:25.955Z,6.27
2018-04-18T15:54:00.659Z,5.27
2018-04-18T15:56:35.339Z,8.77
2018-04-18T15:59:10.156Z,5.63
2018-04-18T16:01:45.195Z,5.60
2018-04-18T16:04:19.219Z,6.40
2018-04-18T16:06:53.095Z,5.77
2018-04-18T16:09:27.934Z,5.20
2018-04-18T16:12:03.061Z,6.03
2018-04-18T16:14:37.999Z,6.87
2018-04-18T16:17:11.983Z,6.00
2018-04-18T16:19:45.926Z,6.63
2018-04-18T16:22:19.739Z,5.77
2018-04-18T16:24:54.539Z,5.57
2018-04-18T16:27:28.235Z,5.90
2018-04-18T16:30:02.903Z,5.73
2018-04-18T16:32:37.715Z,9.63
2018-04-18T16:35:12.104Z,5.47
2018-04-18T16:37:46.432Z,4.60
2018-04-18T16:40:20.657Z,5.53
2018-04-18T16:42:55.413Z,7.17
2018-04-18T16:45:30.367Z,4.80
2018-04-18T16:48:05.174Z,4.80
2018-04-18T16:50:39.118Z,5.27
2018-04-18T16:53:13.874Z,5.40
2018-04-18T16:55:48.795Z,5.67
2018-04-18T16:58:24.037Z,5.30
2018-04-18T17:00:57.649Z,8.57
2018-04-18T17:03:31.790Z,7.90
2018-04-18T17:06:05.781Z,14.63
2018-04-18T17:08:40.080Z,12.53
2018-04-18T17:11:15.179Z,6.67
2018-04-18T17:13:49.782Z,6.37
2018-04-18T17:16:23.867Z,6.00
2018-04-18T17:18:58.438Z,6.23
2018-04-18T17:21:32.341Z,7.73
2018-04-18T17:24:06.985Z,8.20
2018-04-18T17:26:42.055Z,7.37
2018-04-18T17:29:16.193Z,9.47
2018-04-18T17:31:51.134Z,7.87
2018-04-18T17:34:25.602Z,8.13
2018-04-18T17:36:59.596Z,8.57
2018-04-18T17:39:34.522Z,8.33
2018-04-18T17:42:09.111Z,7.97
2018-04-18T17:44:43.505Z,9.37
2018-04-18T17:47:18.068Z,11.57
2018-04-18T17:49:52.378Z,9.87
2018-04-18T17:52:27.427Z,8.30
2018-04-18T17:55:02.600Z,10.27
2018-04-18T17:57:37.918Z,8.60
2018-04-18T18:00:12.493Z,8.37
2018-04-18T18:02:47.564Z,8.90
2018-04-18T18:05:21.477Z,10.10
2018-04-18T18:07:55.601Z,11.87
2018-04-18T18:10:30.335Z,7.83
2018-04-18T18:13:05.047Z,9.07
2018-04-18T18:15:39.697Z,8.70
2018-04-18T18:18:14.008Z,8.90
2018-04-18T18:20:48.720Z,10.27
2018-04-18T18:23:22.730Z,12.53
2018-04-18T18:25:56.676Z,9.03
2018-04-18T18:28:31.377Z,9.90
2018-04-18T18:31:06.339Z,9.00
2018-04-18T18:33:41.206Z,9.97
2018-04-18T18:36:15.933Z,9.47
2018-04-18T18:38:49.668Z,12.30
2018-04-18T18:41:24.768Z,10.03
2018-04-18T18:43:58.773Z,9.30
2018-04-18T18:46:34.927Z,10.63
2018-04-18T18:49:08.744Z,9.60
2018-04-18T18:51:43.454Z,12.30
2018-04-18T18:54:17.339Z,12.13
2018-04-18T18:56:51.301Z,10.83
2018-04-18T18:59:25.936Z,10.93
2018-04-18T19:02:00.928Z,8.87
2018-04-18T19:04:35.479Z,8.60
2018-04-18T19:07:10.082Z,10.47
2018-04-18T19:09:44.903Z,10.37
2018-04-18T19:12:19.345Z,16.83
2018-04-18T19:14:54.240Z,8.77
2018-04-18T19:17:28.001Z,10.23
2018-04-18T19:20:02.734Z,9.27
2018-04-18T19:22:37.626Z,11.67
2018-04-18T19:25:12.232Z,12.90
2018-04-18T19:27:47.201Z,10.67
2018-04-18T19:30:22.183Z,9.40
2018-04-18T19:32:56.543Z,12.00
2018-04-18T19:35:31.150Z,8.33
2018-04-18T19:38:05.787Z,8.33
2018-04-18T19:40:39.616Z,9.20
2018-04-18T19:43:15.337Z,10.73
2018-04-18T19:45:50.223Z,9.47
2018-04-18T19:48:23.905Z,9.27
2018-04-18T19:50:58.519Z,13.10
2018-04-18T19:53:32.398Z,12.37
2018-04-18T19:56:06.721Z,16.53
2018-04-18T19:58:41.565Z,11.10
2018-04-18T20:01:15.579Z,12.70
2018-04-18T20:03:49.788Z,10.10
2018-04-18T20:06:24.485Z,11.10
2018-04-18T20:08:59.176Z,14.27
2018-04-18T20:11:32.984Z,16.53
2018-04-18T20:14:06.604Z,11.10
2018-04-18T20:16:40.469Z,10.60
2018-04-18T20:19:15.770Z,12.60
2018-04-18T20:21:50.673Z,11.20
2018-04-18T20:24:24.776Z,11.87
2018-04-18T20:27:00.722Z,10.77
2018-04-18T20:29:35.489Z,10.40
2018-04-18T20:32:09.525Z,12.67
2018-04-18T20:34:44.253Z,13.37
2018-04-18T20:37:18.247Z,10.73
2018-04-18T20:39:53.022Z,13.67
2018-04-18T20:42:27.793Z,10.97
2018-04-18T20:45:01.959Z,11.87
2018-04-18T20:47:35.632Z,11.43
2018-04-18T20:50:10.341Z,12.33
2018-04-18T20:52:45.017Z,13.33
2018-04-18T20:55:19.590Z,14.13
2018-04-18T20:57:53.401Z,13.63
2018-04-18T21:00:28.717Z,13.30
2018-04-18T21:03:03.542Z,12.23
2018-04-18T21:05:37.151Z,15.37
2018-04-18T21:08:10.743Z,12.90
2018-04-18T21:10:44.703Z,13.50
2018-04-18T21:13:19.175Z,13.30
2018-04-18T21:15:53.856Z,13.63
2018-04-18T21:18:27.904Z,13.53
2018-04-18T21:21:02.897Z,12.93
2018-04-18T21:23:37.612Z,13.77
2018-04-18T21:26:12.055Z,12.50
2018-04-18T21:28:46.831Z,13.50
2018-04-18T21:31:21.560Z,12.40
2018-04-18T21:33:56.680Z,12.87
2018-04-18T21:36:31.190Z,12.50
2018-04-18T21:39:05.200Z,15.67
2018-04-18T21:41:39.285Z,14.43
2018-04-18T21:44:13.304Z,13.93
2018-04-18T21:46:48.688Z,13.97
2018-04-18T21:49:22.860Z,13.40
2018-04-18T21:51:57.528Z,15.10
2018-04-18T21:54:32.617Z,14.27
2018-04-18T21:57:07.193Z,14.37
2018-04-18T21:59:41.368Z,14.33
2018-04-18T22:02:15.622Z,15.30
2018-04-18T22:04:49.679Z,17.30
2018-04-18T22:07:23.632Z,15.97
2018-04-18T22:09:58.458Z,14.47
2018-04-18T22:12:32.387Z,16.80
2018-04-18T22:15:06.059Z,17.80
2018-04-18T22:17:40.078Z,18.07
2018-04-18T22:20:13.819Z,15.90
2018-04-18T22:22:47.931Z,14.63
2018-04-18T22:25:21.650Z,16.20
2018-04-18T22:27:55.703Z,15.13
2018-04-18T22:30:30.199Z,16.63
2018-04-18T22:33:04.127Z,14.83
2018-04-18T22:35:38.854Z,15.10
2018-04-18T22:38:13.419Z,15.10
2018-04-18T22:40:48.434Z,15.70
2018-04-18T22:43:21.942Z,15.80
2018-04-18T22:45:57.388Z,14.27
2018-04-18T22:48:31.196Z,17.73
2018-04-18T22:51:05.571Z,16.70
2018-04-18T22:53:39.336Z,15.80
2018-04-18T22:56:13.853Z,14.83
2018-04-18T22:58:47.813Z,17.73
2018-04-18T23:01:22.583Z,16.40
2018-04-18T23:03:56.605Z,17.07
2018-04-18T23:06:31.799Z,18.10
2018-04-18T23:09:06.603Z,14.20
2018-04-18T23:11:40.622Z,15.87
2018-04-18T23:14:14.730Z,16.23
2018-04-18T23:16:49.588Z,18.17
2018-04-18T23:19:24.033Z,16.73
2018-04-18T23:21:59.101Z,15.37
2018-04-18T23:24:34.202Z,16.13
2018-04-18T23:27:08.331Z,14.97
2018-04-18T23:29:42.365Z,18.93
2018-04-18T23:32:16.676Z,19.03
2018-04-18T23:34:50.485Z,16.90
2018-04-18T23:37:24.906Z,18.27
2018-04-18T23:40:00.546Z,19.63
2018-04-18T23:42:35.785Z,20.50
2018-04-18T23:45:10.840Z,17.70
2018-04-18T23:47:44.990Z,17.97
2018-04-18T23:50:19.646Z,18.03
2018-04-18T23:52:55.092Z,18.77
2018-04-18T23:55:30.739Z,18.40
2018-04-18T23:58:05.639Z,17.27
